createdAt,value
2019-03-20T00:00:43.989Z,-0.80
2019-03-20T00:03:13.476Z,-0.90
2019-03-20T00:05:43.050Z,-0.90
2019-03-20T00:08:12.551Z,-0.90
2019-03-20T00:10:42.063Z,-0.70
2019-03-20T00:13:11.474Z,-0.40
2019-03-20T00:15:41.064Z,-0.50
2019-03-20T00:18:10.649Z,-0.30
2019-03-20T00:20:41.581Z,-0.50
2019-03-20T00:23:11.072Z,-0.30
2019-03-20T00:25:40.636Z,-0.40
2019-03-20T00:28:11.141Z,-0.30
2019-03-20T00:30:42.023Z,-0.30
2019-03-20T00:33:11.506Z,-0.20
2019-03-20T00:35:42.218Z,-0.40
2019-03-20T00:38:11.714Z,-0.40
2019-03-20T00:40:42.699Z,-0.20
2019-03-20T00:43:12.171Z,-0.20
2019-03-20T00:45:42.886Z,-0.70
2019-03-20T00:48:12.296Z,-0.70
2019-03-20T00:50:41.738Z,-0.70
2019-03-20T00:53:11.143Z,-0.80
2019-03-20T00:55:40.662Z,-0.80
2019-03-20T00:58:10.071Z,-0.60
2019-03-20T01:00:40.783Z,-0.60
2019-03-20T01:03:10.195Z,-0.70
2019-03-20T01:05:39.702Z,-0.90
2019-03-20T01:08:09.106Z,-0.70
2019-03-20T01:10:39.824Z,-0.60
2019-03-20T01:13:09.307Z,-0.50
2019-03-20T01:15:38.818Z,-0.40
2019-03-20T01:18:08.239Z,-0.40
2019-03-20T01:20:37.759Z,-0.50
2019-03-20T01:23:07.238Z,-0.80
2019-03-20T01:25:37.949Z,-0.70
2019-03-20T01:28:07.426Z,-0.60
2019-03-20T01:30:40.196Z,-0.60
2019-03-20T01:33:13.244Z,-0.60
2019-03-20T01:35:42.758Z,-0.50
2019-03-20T01:38:12.188Z,-0.50
2019-03-20T01:40:42.880Z,-0.40
2019-03-20T01:43:12.287Z,-0.50
2019-03-20T01:45:41.749Z,-0.60
2019-03-20T01:48:11.236Z,-0.40
2019-03-20T01:50:41.947Z,-0.30
2019-03-20T01:53:11.365Z,-0.50
2019-03-20T01:55:42.214Z,-0.50
2019-03-20T01:58:11.663Z,-0.50
2019-03-20T02:00:41.082Z,-0.60
2019-03-20T02:03:10.660Z,-0.60
2019-03-20T02:05:40.144Z,-0.70
2019-03-20T02:08:09.591Z,-0.90
2019-03-20T02:10:39.080Z,-0.90
2019-03-20T02:13:08.590Z,-0.90
2019-03-20T02:15:39.824Z,-1.10
2019-03-20T02:18:09.375Z,-1.10
2019-03-20T02:20:40.056Z,-1.00
2019-03-20T02:23:09.516Z,-1.10
2019-03-20T02:25:38.906Z,-1.20
2019-03-20T02:28:08.423Z,-1.10
2019-03-20T02:30:37.908Z,-1.20
2019-03-20T02:33:07.411Z,-1.10
2019-03-20T02:35:50.680Z,-1.10
2019-03-20T02:38:09.263Z,-1.20
2019-03-20T02:40:39.931Z,-1.10
2019-03-20T02:43:09.443Z,-1.00
2019-03-20T02:45:40.323Z,-1.00
2019-03-20T02:48:09.853Z,-1.00
2019-03-20T02:50:39.339Z,-0.90
2019-03-20T02:53:08.781Z,-0.90
2019-03-20T02:55:38.279Z,-1.00
2019-03-20T02:58:07.710Z,-1.10
2019-03-20T03:00:38.401Z,-1.00
2019-03-20T03:03:07.908Z,-1.00
2019-03-20T03:05:38.780Z,-1.10
2019-03-20T03:08:08.238Z,-1.30
2019-03-20T03:10:38.919Z,-1.10
2019-03-20T03:13:08.439Z,-1.00
2019-03-20T03:15:37.915Z,-1.30
2019-03-20T03:18:07.359Z,-1.30
2019-03-20T03:20:36.836Z,-1.20
2019-03-20T03:23:06.346Z,-1.20
2019-03-20T03:25:36.131Z,-1.10
2019-03-20T03:28:05.546Z,-1.20
2019-03-20T03:30:36.319Z,-1.00
2019-03-20T03:33:05.777Z,-1.10
2019-03-20T03:35:36.547Z,-1.00
2019-03-20T03:38:05.980Z,-0.90
2019-03-20T03:40:35.459Z,-0.80
2019-03-20T03:43:04.905Z,-0.80
2019-03-20T03:45:35.675Z,-1.00
2019-03-20T03:48:05.122Z,-1.00
2019-03-20T03:50:36.271Z,-1.10
2019-03-20T03:53:05.764Z,-0.90
2019-03-20T03:55:36.560Z,-0.90
2019-03-20T03:58:05.999Z,-0.90
2019-03-20T04:00:36.771Z,-0.80
2019-03-20T04:03:07.974Z,-0.90
2019-03-20T04:05:37.446Z,-0.80
2019-03-20T04:08:06.956Z,-0.80
2019-03-20T04:10:37.836Z,-0.80
2019-03-20T04:13:07.334Z,-0.90
2019-03-20T04:15:36.919Z,-0.90
2019-03-20T04:18:06.323Z,-1.10
2019-03-20T04:20:37.036Z,-1.10
2019-03-20T04:23:06.526Z,-1.20
2019-03-20T04:25:37.365Z,-1.20
2019-03-20T04:28:06.840Z,-1.20
2019-03-20T04:30:36.350Z,-1.10
2019-03-20T04:33:05.765Z,-1.10
2019-03-20T04:35:35.267Z,-1.20
2019-03-20T04:38:04.677Z,-1.30
2019-03-20T04:40:35.399Z,-1.30
2019-03-20T04:43:04.809Z,-1.30
2019-03-20T04:45:35.514Z,-1.70
2019-03-20T04:48:04.929Z,-2.00
2019-03-20T04:50:34.375Z,-2.00
2019-03-20T04:53:03.809Z,-2.00
2019-03-20T04:55:34.521Z,-1.80
2019-03-20T04:58:03.937Z,-1.60
2019-03-20T05:00:33.443Z,-1.60
2019-03-20T05:03:02.857Z,-1.60
2019-03-20T05:05:32.398Z,-1.50
2019-03-20T05:08:01.805Z,-1.40
2019-03-20T05:10:32.516Z,-1.30
2019-03-20T05:13:01.924Z,-1.30
2019-03-20T05:15:32.636Z,-1.40
2019-03-20T05:18:02.047Z,-1.40
2019-03-20T05:20:32.761Z,-1.50
2019-03-20T05:23:02.243Z,-1.50
2019-03-20T05:25:32.960Z,-1.40
2019-03-20T05:28:02.376Z,-1.20
2019-03-20T05:30:33.079Z,-1.10
2019-03-20T05:33:02.490Z,-1.10
2019-03-20T05:35:33.195Z,-1.10
2019-03-20T05:38:02.604Z,-1.10
2019-03-20T05:40:33.429Z,-1.10
2019-03-20T05:43:02.831Z,-1.10
2019-03-20T05:45:32.242Z,-1.00
2019-03-20T05:48:01.701Z,-1.00
2019-03-20T05:50:31.125Z,-1.00
2019-03-20T05:53:00.571Z,-0.90
2019-03-20T05:55:31.354Z,-0.80
2019-03-20T05:58:00.799Z,-0.80
2019-03-20T06:00:33.215Z,-0.80
2019-03-20T06:03:02.730Z,-0.80
2019-03-20T06:05:33.509Z,-0.80
2019-03-20T06:08:03.031Z,-0.60
2019-03-20T06:10:32.446Z,-0.30
2019-03-20T06:13:01.896Z,-0.30
2019-03-20T06:15:32.776Z,-0.30
2019-03-20T06:18:02.217Z,-0.40
2019-03-20T06:20:33.958Z,-0.30
2019-03-20T06:23:03.538Z,0.00
2019-03-20T06:25:34.217Z,0.10
2019-03-20T06:28:03.655Z,0.20
2019-03-20T06:30:34.339Z,0.60
2019-03-20T06:33:03.783Z,1.20
2019-03-20T06:35:34.656Z,1.50
2019-03-20T06:38:04.095Z,1.90
2019-03-20T06:40:34.578Z,2.20
2019-03-20T06:43:04.015Z,2.50
2019-03-20T06:45:34.696Z,2.70
2019-03-20T06:48:04.142Z,3.10
2019-03-20T06:50:33.627Z,3.30
2019-03-20T06:53:03.089Z,3.50
2019-03-20T06:55:32.487Z,4.00
2019-03-20T06:58:01.935Z,4.10
2019-03-20T07:01:03.237Z,4.40
2019-03-20T07:03:51.097Z,4.80
2019-03-20T07:06:32.586Z,5.50
2019-03-20T07:09:11.077Z,5.20
2019-03-20T07:11:41.863Z,6.10
2019-03-20T07:14:11.452Z,6.90
2019-03-20T07:16:40.862Z,7.20
2019-03-20T07:19:10.316Z,7.20
2019-03-20T07:21:39.723Z,7.80
2019-03-20T07:24:09.260Z,8.10
2019-03-20T07:26:38.739Z,8.50
2019-03-20T07:29:08.188Z,9.00
2019-03-20T07:31:38.958Z,9.70
2019-03-20T07:34:08.470Z,9.70
2019-03-20T07:36:39.160Z,10.30
2019-03-20T07:39:09.477Z,10.60
2019-03-20T07:41:40.264Z,11.00
2019-03-20T07:44:09.775Z,11.40
2019-03-20T07:46:39.190Z,11.80
2019-03-20T07:49:08.630Z,12.20
2019-03-20T07:51:39.319Z,12.50
2019-03-20T07:54:08.776Z,12.70
2019-03-20T07:56:39.450Z,13.00
2019-03-20T07:59:08.900Z,13.20
2019-03-20T08:01:39.571Z,13.70
2019-03-20T08:04:09.016Z,14.00
2019-03-20T08:06:38.423Z,14.30
2019-03-20T08:09:08.036Z,15.10
2019-03-20T08:11:37.523Z,15.60
2019-03-20T08:14:06.969Z,15.70
2019-03-20T08:16:36.387Z,15.70
2019-03-20T08:19:05.919Z,16.00
2019-03-20T08:21:36.599Z,16.10
2019-03-20T08:24:06.105Z,16.60
2019-03-20T08:26:36.804Z,16.80
2019-03-20T08:29:06.307Z,16.00
2019-03-20T08:31:35.780Z,16.10
2019-03-20T08:34:05.293Z,16.20
2019-03-20T08:36:34.772Z,16.60
2019-03-20T08:39:05.920Z,16.90
2019-03-20T08:41:35.398Z,17.30
2019-03-20T08:44:04.963Z,17.40
2019-03-20T08:46:35.978Z,17.60
2019-03-20T08:49:05.482Z,18.00
2019-03-20T08:51:34.994Z,18.10
2019-03-20T08:54:04.492Z,18.10
2019-03-20T08:56:35.250Z,18.70
2019-03-20T08:59:14.199Z,18.50
2019-03-20T09:01:43.740Z,19.20
2019-03-20T09:04:25.623Z,19.40
2019-03-20T09:06:55.098Z,19.90
2019-03-20T09:09:24.617Z,20.30
2019-03-20T09:11:54.239Z,20.50
2019-03-20T09:14:23.773Z,20.10
2019-03-20T09:16:54.493Z,20.80
2019-03-20T09:19:23.988Z,21.10
2019-03-20T09:21:54.663Z,21.00
2019-03-20T09:24:25.660Z,20.70
2019-03-20T09:26:55.063Z,20.40
2019-03-20T09:29:35.363Z,20.70
2019-03-20T09:31:55.532Z,20.90
2019-03-20T09:34:24.971Z,20.70
2019-03-20T09:36:54.380Z,20.90
2019-03-20T09:39:23.824Z,21.90
2019-03-20T09:41:53.235Z,21.70
2019-03-20T09:44:22.738Z,22.00
2019-03-20T09:46:52.217Z,21.60
2019-03-20T09:49:21.718Z,21.40
2019-03-20T09:51:52.705Z,21.40
2019-03-20T09:54:22.329Z,21.90
2019-03-20T09:56:51.899Z,21.10
2019-03-20T09:59:21.427Z,18.30
2019-03-20T10:01:52.127Z,16.20
2019-03-20T10:04:21.604Z,15.10
2019-03-20T10:06:51.042Z,15.20
2019-03-20T10:09:20.531Z,16.60
2019-03-20T10:11:50.101Z,17.40
2019-03-20T10:14:19.622Z,19.20
2019-03-20T10:16:49.169Z,20.50
2019-03-20T10:19:18.678Z,21.50
2019-03-20T10:21:49.475Z,22.00
2019-03-20T10:24:18.886Z,21.70
2019-03-20T10:26:48.332Z,21.90
2019-03-20T10:29:17.815Z,21.70
2019-03-20T10:31:48.736Z,22.20
2019-03-20T10:34:18.263Z,22.20
2019-03-20T10:36:49.159Z,21.50
2019-03-20T10:39:18.689Z,20.60
2019-03-20T10:41:48.232Z,21.00
2019-03-20T10:44:17.669Z,21.50
2019-03-20T10:46:47.151Z,21.50
2019-03-20T10:49:16.598Z,21.70
2019-03-20T10:51:46.217Z,22.70
2019-03-20T10:54:16.616Z,22.80
2019-03-20T10:56:47.418Z,21.90
2019-03-20T10:59:16.859Z,22.10
2019-03-20T11:01:47.613Z,22.40
2019-03-20T11:04:17.059Z,22.20
2019-03-20T11:06:47.803Z,22.40
2019-03-20T11:09:18.598Z,22.60
2019-03-20T11:11:49.481Z,22.10
2019-03-20T11:14:18.994Z,19.80
2019-03-20T11:16:49.951Z,21.30
2019-03-20T11:19:19.382Z,21.20
2019-03-20T11:21:50.118Z,22.00
2019-03-20T11:24:19.638Z,22.20
2019-03-20T11:26:49.111Z,22.90
2019-03-20T11:29:21.635Z,22.80
2019-03-20T11:31:49.731Z,21.40
2019-03-20T11:34:19.175Z,20.80
2019-03-20T11:36:48.658Z,20.60
2019-03-20T11:39:28.992Z,21.60
2019-03-20T11:41:50.555Z,22.00
2019-03-20T11:44:19.996Z,21.80
2019-03-20T11:46:49.551Z,22.30
2019-03-20T11:49:18.991Z,21.00
2019-03-20T11:51:48.548Z,21.40
2019-03-20T11:54:18.125Z,21.60
2019-03-20T11:56:48.962Z,21.20
2019-03-20T11:59:18.410Z,19.50
2019-03-20T12:01:49.154Z,19.60
2019-03-20T12:04:18.598Z,18.70
2019-03-20T12:06:48.152Z,18.80
2019-03-20T12:09:17.594Z,20.60
2019-03-20T12:11:47.104Z,21.50
2019-03-20T12:14:16.542Z,21.50
2019-03-20T12:16:46.000Z,21.70
2019-03-20T12:19:15.479Z,21.50
2019-03-20T12:21:46.393Z,21.70
2019-03-20T12:24:15.880Z,21.90
2019-03-20T12:26:46.597Z,21.50
2019-03-20T12:29:16.070Z,21.40
2019-03-20T12:31:46.791Z,21.10
2019-03-20T12:34:16.342Z,20.80
2019-03-20T12:36:45.789Z,20.70
2019-03-20T12:39:15.268Z,20.30
2019-03-20T12:41:46.078Z,20.60
2019-03-20T12:44:15.700Z,20.70
2019-03-20T12:46:45.404Z,20.60
2019-03-20T12:49:14.951Z,19.20
2019-03-20T12:51:45.669Z,18.20
2019-03-20T12:54:15.146Z,17.90
2019-03-20T12:56:44.831Z,18.70
2019-03-20T12:59:14.384Z,19.00
2019-03-20T13:01:43.896Z,19.00
2019-03-20T13:04:13.446Z,19.30
2019-03-20T13:06:44.154Z,19.50
2019-03-20T13:09:13.627Z,18.20
2019-03-20T13:11:44.548Z,17.80
2019-03-20T13:14:14.038Z,18.60
2019-03-20T13:16:44.751Z,18.60
2019-03-20T13:19:14.295Z,18.80
2019-03-20T13:21:43.810Z,18.70
2019-03-20T13:24:13.349Z,17.60
2019-03-20T13:26:42.859Z,17.20
2019-03-20T13:29:12.342Z,17.30
2019-03-20T13:31:43.260Z,16.60
2019-03-20T13:34:12.742Z,16.10
2019-03-20T13:36:45.092Z,15.50
2019-03-20T13:39:14.631Z,15.20
2019-03-20T13:41:44.154Z,14.90
2019-03-20T13:44:13.629Z,15.10
2019-03-20T13:46:44.449Z,14.60
2019-03-20T13:49:14.001Z,14.10
2019-03-20T13:51:44.919Z,13.70
2019-03-20T13:54:14.391Z,14.00
2019-03-20T13:56:43.902Z,13.10
2019-03-20T13:59:13.446Z,13.20
2019-03-20T14:01:44.359Z,13.20
2019-03-20T14:04:13.908Z,13.20
2019-03-20T14:06:43.419Z,12.60
2019-03-20T14:09:12.899Z,12.70
2019-03-20T14:11:43.711Z,12.80
2019-03-20T14:14:13.185Z,12.70
2019-03-20T14:16:43.906Z,12.60
2019-03-20T14:19:13.458Z,12.30
2019-03-20T14:21:42.989Z,12.20
2019-03-20T14:24:12.466Z,12.10
2019-03-20T14:26:43.284Z,12.00
2019-03-20T14:29:12.770Z,12.00
2019-03-20T14:31:42.284Z,11.80
2019-03-20T14:34:11.830Z,11.40
2019-03-20T14:36:42.652Z,11.50
2019-03-20T14:39:12.123Z,11.60
2019-03-20T14:41:41.631Z,11.50
2019-03-20T14:44:11.185Z,10.90
2019-03-20T14:46:41.904Z,11.10
2019-03-20T14:49:11.383Z,10.80
2019-03-20T14:51:40.829Z,11.10
2019-03-20T14:54:10.312Z,11.20
2019-03-20T14:56:41.207Z,11.40
2019-03-20T14:59:10.752Z,11.10
2019-03-20T15:01:40.194Z,11.00
2019-03-20T15:04:09.746Z,10.80
2019-03-20T15:06:39.195Z,10.70
2019-03-20T15:09:08.744Z,10.80
2019-03-20T15:11:39.558Z,10.90
2019-03-20T15:14:09.043Z,10.90
2019-03-20T15:16:39.772Z,10.90
2019-03-20T15:19:09.319Z,10.70
2019-03-20T15:21:38.802Z,10.70
2019-03-20T15:24:08.326Z,10.60
2019-03-20T15:26:39.073Z,10.50
2019-03-20T15:29:08.602Z,10.40
2019-03-20T15:31:38.164Z,10.50
2019-03-20T15:34:07.620Z,10.60
2019-03-20T15:36:38.387Z,10.60
2019-03-20T15:39:08.002Z,10.40
2019-03-20T15:41:37.482Z,10.40
2019-03-20T15:44:06.932Z,10.40
2019-03-20T15:46:36.477Z,10.20
2019-03-20T15:49:05.945Z,10.30
2019-03-20T15:51:35.524Z,10.40
2019-03-20T15:54:04.970Z,10.40
2019-03-20T15:56:35.819Z,10.30
2019-03-20T15:59:05.341Z,10.30
2019-03-20T16:01:36.089Z,10.30
2019-03-20T16:04:05.863Z,10.20
2019-03-20T16:06:35.416Z,9.90
2019-03-20T16:09:07.571Z,10.00
2019-03-20T16:11:38.522Z,10.00
2019-03-20T16:14:07.965Z,9.90
2019-03-20T16:16:37.513Z,9.90
2019-03-20T16:19:06.956Z,9.80
2019-03-20T16:21:36.492Z,9.80
2019-03-20T16:24:06.132Z,9.80
2019-03-20T16:26:35.662Z,9.70
2019-03-20T16:29:05.114Z,9.60
2019-03-20T16:31:34.612Z,9.60
2019-03-20T16:34:04.214Z,9.50
2019-03-20T16:36:33.737Z,9.60
2019-03-20T16:39:03.184Z,9.60
2019-03-20T16:41:34.026Z,9.50
2019-03-20T16:44:03.497Z,9.50
2019-03-20T16:46:33.054Z,9.50
2019-03-20T16:49:02.498Z,9.50
2019-03-20T16:51:33.144Z,9.30
2019-03-20T16:54:02.614Z,9.30
2019-03-20T16:56:32.059Z,9.30
2019-03-20T16:59:03.199Z,9.30
2019-03-20T17:01:33.914Z,9.30
2019-03-20T17:04:04.476Z,9.30
2019-03-20T17:06:35.212Z,9.40
2019-03-20T17:09:06.831Z,9.20
2019-03-20T17:11:38.495Z,9.00
2019-03-20T17:14:08.222Z,9.00
2019-03-20T17:16:37.722Z,8.90
2019-03-20T17:19:07.190Z,8.90
2019-03-20T17:21:36.704Z,8.80
2019-03-20T17:24:06.189Z,8.90
2019-03-20T17:26:35.751Z,8.80
2019-03-20T17:29:09.228Z,8.80
2019-03-20T17:31:37.627Z,8.50
2019-03-20T17:34:07.181Z,8.20
2019-03-20T17:36:36.682Z,7.90
2019-03-20T17:39:08.673Z,7.80
2019-03-20T17:41:39.387Z,7.70
2019-03-20T17:44:08.868Z,7.60
2019-03-20T17:46:39.573Z,7.40
2019-03-20T17:49:09.118Z,7.10
2019-03-20T17:51:38.632Z,7.10
2019-03-20T17:54:08.112Z,7.00
2019-03-20T17:56:37.624Z,7.00
2019-03-20T17:59:07.096Z,6.90
2019-03-20T18:01:36.611Z,6.90
2019-03-20T18:04:06.165Z,6.90
2019-03-20T18:06:35.676Z,6.70
2019-03-20T18:09:07.958Z,6.70
2019-03-20T18:11:43.778Z,6.50
2019-03-20T18:14:08.568Z,6.50
2019-03-20T18:16:39.286Z,6.20
2019-03-20T18:19:08.763Z,6.30
2019-03-20T18:21:39.475Z,6.10
2019-03-20T18:24:08.954Z,6.10
2019-03-20T18:26:38.413Z,6.00
2019-03-20T18:29:07.887Z,5.80
2019-03-20T18:31:45.687Z,5.70
2019-03-20T18:34:09.701Z,5.70
2019-03-20T18:36:40.415Z,5.80
2019-03-20T18:39:09.954Z,5.80
2019-03-20T18:41:39.633Z,5.70
2019-03-20T18:44:09.116Z,5.70
2019-03-20T18:46:38.558Z,5.70
2019-03-20T18:49:08.034Z,5.60
2019-03-20T18:51:38.709Z,5.50
2019-03-20T18:54:08.143Z,5.50
2019-03-20T18:56:38.882Z,5.50
2019-03-20T18:59:08.313Z,5.40
2019-03-20T19:01:37.710Z,5.40
2019-03-20T19:04:07.146Z,5.30
2019-03-20T19:06:37.926Z,5.30
2019-03-20T19:09:09.001Z,5.30
2019-03-20T19:11:39.672Z,5.20
2019-03-20T19:14:09.105Z,5.10
2019-03-20T19:16:38.595Z,5.20
2019-03-20T19:19:08.085Z,5.10
2019-03-20T19:21:38.790Z,5.20
2019-03-20T19:24:08.286Z,5.10
2019-03-20T19:26:37.676Z,5.10
2019-03-20T19:29:07.183Z,5.00
2019-03-20T19:31:37.863Z,5.00
2019-03-20T19:34:07.304Z,5.00
2019-03-20T19:36:37.968Z,4.90
2019-03-20T19:39:07.683Z,5.00
2019-03-20T19:41:38.460Z,4.90
2019-03-20T19:44:08.073Z,4.90
2019-03-20T19:46:37.483Z,4.80
2019-03-20T19:49:06.939Z,4.70
2019-03-20T19:51:37.619Z,4.70
2019-03-20T19:54:07.067Z,4.60
2019-03-20T19:56:36.534Z,4.80
2019-03-20T19:59:06.054Z,4.80
2019-03-20T20:01:36.736Z,4.70
2019-03-20T20:04:06.181Z,4.60
2019-03-20T20:06:36.860Z,4.50
2019-03-20T20:09:07.091Z,4.50
2019-03-20T20:11:36.559Z,4.70
2019-03-20T20:14:06.894Z,4.70
2019-03-20T20:16:37.603Z,4.60
2019-03-20T20:19:07.010Z,4.60
2019-03-20T20:21:36.510Z,4.60
2019-03-20T20:24:05.986Z,4.60
2019-03-20T20:26:36.699Z,4.50
2019-03-20T20:29:06.111Z,4.50
2019-03-20T20:31:36.815Z,4.40
2019-03-20T20:34:06.226Z,4.40
2019-03-20T20:36:35.744Z,4.30
2019-03-20T20:39:06.786Z,4.20
2019-03-20T20:41:36.287Z,4.20
2019-03-20T20:44:06.758Z,4.10
2019-03-20T20:46:36.347Z,3.90
2019-03-20T20:49:05.764Z,4.00
2019-03-20T20:51:36.575Z,4.00
2019-03-20T20:54:06.050Z,3.70
2019-03-20T20:56:35.570Z,3.40
2019-03-20T20:59:05.014Z,3.10
2019-03-20T21:01:35.710Z,3.10
2019-03-20T21:04:05.228Z,3.20
2019-03-20T21:06:34.919Z,3.50
2019-03-20T21:09:06.873Z,3.60
2019-03-20T21:11:37.583Z,3.50
2019-03-20T21:14:07.066Z,3.50
2019-03-20T21:16:37.787Z,3.50
2019-03-20T21:19:33.077Z,3.30
2019-03-20T21:22:22.047Z,3.40
2019-03-20T21:24:51.510Z,3.50
2019-03-20T21:27:56.962Z,3.50
2019-03-20T21:30:44.090Z,3.40
2019-03-20T21:33:16.827Z,3.40
2019-03-20T21:36:26.931Z,3.50
2019-03-20T21:38:56.339Z,3.50
2019-03-20T21:41:31.600Z,3.70
2019-03-20T21:44:29.476Z,3.40
2019-03-20T21:47:35.174Z,3.40
2019-03-20T21:50:16.716Z,3.30
2019-03-20T21:52:47.392Z,3.30
2019-03-20T21:55:22.732Z,3.30
2019-03-20T21:58:00.979Z,3.30
2019-03-20T22:00:49.863Z,3.30
2019-03-20T22:03:19.274Z,3.20
2019-03-20T22:06:04.747Z,3.10
2019-03-20T22:08:34.224Z,3.00
2019-03-20T22:11:26.073Z,3.10
2019-03-20T22:13:58.797Z,3.10
2019-03-20T22:16:37.377Z,3.00
2019-03-20T22:19:21.645Z,2.90
2019-03-20T22:22:30.086Z,2.90
2019-03-20T22:25:19.226Z,2.70
2019-03-20T22:27:58.860Z,2.60
2019-03-20T22:30:28.271Z,2.50
2019-03-20T22:33:33.927Z,2.60
2019-03-20T22:36:05.385Z,2.50
2019-03-20T22:38:47.116Z,2.50
2019-03-20T22:41:34.043Z,2.40
2019-03-20T22:44:03.932Z,2.40
2019-03-20T22:46:52.955Z,2.50
2019-03-20T22:49:43.270Z,2.40
2019-03-20T22:52:30.645Z,2.40
2019-03-20T22:55:22.866Z,2.40
2019-03-20T22:58:12.028Z,2.30
2019-03-20T23:00:41.438Z,1.80
2019-03-20T23:03:14.412Z,2.10
2019-03-20T23:05:44.988Z,2.30
2019-03-20T23:08:14.863Z,2.30
2019-03-20T23:10:48.589Z,2.30
2019-03-20T23:13:19.174Z,2.30
2019-03-20T23:15:50.851Z,2.30
2019-03-20T23:18:20.455Z,2.30
2019-03-20T23:20:49.934Z,2.30
2019-03-20T23:23:19.446Z,2.30
2019-03-20T23:25:49.024Z,2.20
2019-03-20T23:28:18.524Z,2.20
2019-03-20T23:30:49.203Z,2.10
2019-03-20T23:33:18.646Z,2.00
2019-03-20T23:35:49.389Z,2.00
2019-03-20T23:38:18.896Z,2.00
2019-03-20T23:40:48.300Z,2.00
2019-03-20T23:43:19.342Z,2.00
2019-03-20T23:45:48.751Z,2.00
2019-03-20T23:48:21.448Z,2.00
2019-03-20T23:51:06.011Z,1.90
2019-03-20T23:53:35.988Z,1.80
2019-03-20T23:56:05.392Z,1.90
2019-03-20T23:58:34.908Z,1.90
